Hudson, Ohio
Current Conditions -  °F | °C
As of 4:21 PM on Saturday 22 Nov 2014 (Local Time) from KPOV Reporting Station
Overcast Overcast  
Wind Chill: 39°   Ceiling: 4800
Heat Index: 43°   Visibility: 10mi
Dew Point: 33°   Wind: 6mph
Humidity: 67%   Direction: 220°SW
Pressure: 30.08"   Gusts: NA
Location:  41.24°N, 81.44°W
Report Text: KPOV 222121Z AUTO 22005KT 10SM BKN048 BKN060 OVC100 06/00 A3008 RMK AO2 T00600003
Loading
Personal Weather Stations






























Interactive Weather Map New forecast layout! Learn more

10-Day Weather Forecast

Advertisements
Track Severe Weather on mobile